sensor_id;sensor_type;location;lat;lon;timestamp;temperature;humidity
3684;DHT22;1858;48.716;9.648;2022-09-09T00:00:20;13.50;99.90
3684;DHT22;1858;48.716;9.648;2022-09-09T00:08:29;13.60;1.00
3684;DHT22;1858;48.716;9.648;2022-09-09T00:11:04;13.50;99.90
3684;DHT22;1858;48.716;9.648;2022-09-09T00:18:56;13.40;1.00
3684;DHT22;1858;48.716;9.648;2022-09-09T00:21:33;13.30;1.00
3684;DHT22;1858;48.716;9.648;2022-09-09T00:24:00;13.30;1.00
3684;DHT22;1858;48.716;9.648;2022-09-09T00:29:22;13.30;1.00
3684;DHT22;1858;48.716;9.648;2022-09-09T00:31:48;13.40;1.00
3684;DHT22;1858;48.716;9.648;2022-09-09T00:34:20;13.40;1.00
3684;DHT22;1858;48.716;9.648;2022-09-09T00:36:48;13.30;1.00
3684;DHT22;1858;48.716;9.648;2022-09-09T00:44:38;13.00;1.00
3684;DHT22;1858;48.716;9.648;2022-09-09T00:47:40;12.90;33.50
3684;DHT22;1858;48.716;9.648;2022-09-09T00:55:45;12.80;99.90
3684;DHT22;1858;48.716;9.648;2022-09-09T00:58:12;12.90;99.90
3684;DHT22;1858;48.716;9.648;2022-09-09T01:00:57;12.90;99.90
3684;DHT22;1858;48.716;9.648;2022-09-09T01:03:35;12.90;99.90
3684;DHT22;1858;48.716;9.648;2022-09-09T01:08:43;13.20;99.90
3684;DHT22;1858;48.716;9.648;2022-09-09T01:11:20;13.20;39.30
3684;DHT22;1858;48.716;9.648;2022-09-09T01:13:45;13.10;1.00
3684;DHT22;1858;48.716;9.648;2022-09-09T01:16:14;13.20;11.40
3684;DHT22;1858;48.716;9.648;2022-09-09T01:18:44;13.20;1.00
3684;DHT22;1858;48.716;9.648;2022-09-09T01:26:41;13.10;99.90
3684;DHT22;1858;48.716;9.648;2022-09-09T01:29:10;13.10;99.90
3684;DHT22;1858;48.716;9.648;2022-09-09T01:31:42;13.00;55.20
3684;DHT22;1858;48.716;9.648;2022-09-09T01:34:11;13.10;99.90
3684;DHT22;1858;48.716;9.648;2022-09-09T01:36:41;13.10;99.90
3684;DHT22;1858;48.716;9.648;2022-09-09T01:39:08;13.10;40.60
3684;DHT22;1858;48.716;9.648;2022-09-09T01:41:35;13.20;11.20
3684;DHT22;1858;48.716;9.648;2022-09-09T01:44:03;13.30;1.00
3684;DHT22;1858;48.716;9.648;2022-09-09T01:49:18;12.90;1.00
3684;DHT22;1858;48.716;9.648;2022-09-09T01:51:46;12.80;99.90
3684;DHT22;1858;48.716;9.648;2022-09-09T01:54:15;12.70;99.90
3684;DHT22;1858;48.716;9.648;2022-09-09T02:02:06;12.40;99.90
3684;DHT22;1858;48.716;9.648;2022-09-09T02:13:05;12.20;1.00
3684;DHT22;1858;48.716;9.648;2022-09-09T02:15:34;12.20;1.00
3684;DHT22;1858;48.716;9.648;2022-09-09T02:18:02;12.10;1.00
3684;DHT22;1858;48.716;9.648;2022-09-09T02:20:31;12.20;87.60
3684;DHT22;1858;48.716;9.648;2022-09-09T02:25:47;12.20;99.90
3684;DHT22;1858;48.716;9.648;2022-09-09T02:28:15;12.20;99.90
3684;DHT22;1858;48.716;9.648;2022-09-09T02:30:52;12.30;99.90
3684;DHT22;1858;48.716;9.648;2022-09-09T02:33:22;12.30;33.70
3684;DHT22;1858;48.716;9.648;2022-09-09T02:35:51;12.40;99.90
3684;DHT22;1858;48.716;9.648;2022-09-09T02:38:19;12.50;1.00
3684;DHT22;1858;48.716;9.648;2022-09-09T02:40:48;12.50;1.00
3684;DHT22;1858;48.716;9.648;2022-09-09T02:43:16;12.50;45.50
3684;DHT22;1858;48.716;9.648;2022-09-09T02:45:51;12.70;6.30
3684;DHT22;1858;48.716;9.648;2022-09-09T02:48:41;12.70;1.00
3684;DHT22;1858;48.716;9.648;2022-09-09T02:51:24;12.60;99.90
3684;DHT22;1858;48.716;9.648;2022-09-09T02:54:02;12.50;1.00
3684;DHT22;1858;48.716;9.648;2022-09-09T02:56:30;12.60;1.00
3684;DHT22;1858;48.716;9.648;2022-09-09T02:59:02;12.60;1.00
3684;DHT22;1858;48.716;9.648;2022-09-09T03:01:48;12.60;99.90
3684;DHT22;1858;48.716;9.648;2022-09-09T03:04:16;12.60;1.00
3684;DHT22;1858;48.716;9.648;2022-09-09T03:09:31;12.60;99.90
3684;DHT22;1858;48.716;9.648;2022-09-09T03:12:01;12.70;99.90
3684;DHT22;1858;48.716;9.648;2022-09-09T03:14:30;12.60;99.90
3684;DHT22;1858;48.716;9.648;2022-09-09T03:16:58;12.60;99.90
3684;DHT22;1858;48.716;9.648;2022-09-09T03:19:27;12.60;99.90
3684;DHT22;1858;48.716;9.648;2022-09-09T03:27:30;12.70;99.90
3684;DHT22;1858;48.716;9.648;2022-09-09T03:29:58;12.60;99.90
3684;DHT22;1858;48.716;9.648;2022-09-09T03:32:25;12.60;99.90
3684;DHT22;1858;48.716;9.648;2022-09-09T03:34:53;12.50;99.90
3684;DHT22;1858;48.716;9.648;2022-09-09T03:37:21;12.50;99.90
3684;DHT22;1858;48.716;9.648;2022-09-09T03:39:49;12.50;99.90
3684;DHT22;1858;48.716;9.648;2022-09-09T03:42:16;12.50;99.90
3684;DHT22;1858;48.716;9.648;2022-09-09T03:44:47;12.50;99.90
3684;DHT22;1858;48.716;9.648;2022-09-09T03:47:17;12.50;99.90
3684;DHT22;1858;48.716;9.648;2022-09-09T03:49:45;12.70;1.00
3684;DHT22;1858;48.716;9.648;2022-09-09T03:55:00;12.90;99.90
3684;DHT22;1858;48.716;9.648;2022-09-09T03:57:28;12.90;99.90
3684;DHT22;1858;48.716;9.648;2022-09-09T03:59:56;12.90;99.90
3684;DHT22;1858;48.716;9.648;2022-09-09T04:02:24;12.90;99.90
3684;DHT22;1858;48.716;9.648;2022-09-09T04:04:52;13.00;99.90
3684;DHT22;1858;48.716;9.648;2022-09-09T04:07:19;12.90;99.90
3684;DHT22;1858;48.716;9.648;2022-09-09T04:09:48;12.90;99.90
3684;DHT22;1858;48.716;9.648;2022-09-09T04:12:15;13.00;99.90
3684;DHT22;1858;48.716;9.648;2022-09-09T04:14:44;12.90;99.90
3684;DHT22;1858;48.716;9.648;2022-09-09T04:17:12;12.90;99.90
3684;DHT22;1858;48.716;9.648;2022-09-09T04:19:39;13.00;99.90
3684;DHT22;1858;48.716;9.648;2022-09-09T04:22:09;13.00;99.90
3684;DHT22;1858;48.716;9.648;2022-09-09T04:24:36;13.00;99.90
3684;DHT22;1858;48.716;9.648;2022-09-09T04:27:04;13.00;99.90
3684;DHT22;1858;48.716;9.648;2022-09-09T04:29:31;13.00;99.90
3684;DHT22;1858;48.716;9.648;2022-09-09T04:32:00;13.30;99.90
3684;DHT22;1858;48.716;9.648;2022-09-09T04:34:27;13.30;1.00
3684;DHT22;1858;48.716;9.648;2022-09-09T04:36:55;13.30;1.00
3684;DHT22;1858;48.716;9.648;2022-09-09T04:39:23;13.40;1.00
3684;DHT22;1858;48.716;9.648;2022-09-09T04:41:51;13.40;1.00
3684;DHT22;1858;48.716;9.648;2022-09-09T04:44:19;13.40;1.00
3684;DHT22;1858;48.716;9.648;2022-09-09T04:46:47;13.30;1.00
3684;DHT22;1858;48.716;9.648;2022-09-09T04:49:14;13.20;1.00
3684;DHT22;1858;48.716;9.648;2022-09-09T04:51:42;13.10;1.00
3684;DHT22;1858;48.716;9.648;2022-09-09T04:54:10;13.10;1.00
3684;DHT22;1858;48.716;9.648;2022-09-09T04:56:38;13.30;1.00
3684;DHT22;1858;48.716;9.648;2022-09-09T04:59:05;13.20;1.00
3684;DHT22;1858;48.716;9.648;2022-09-09T05:01:33;13.10;1.00
3684;DHT22;1858;48.716;9.648;2022-09-09T05:04:01;13.10;1.00
3684;DHT22;1858;48.716;9.648;2022-09-09T05:06:29;13.10;1.00
3684;DHT22;1858;48.716;9.648;2022-09-09T05:08:58;13.10;1.00
3684;DHT22;1858;48.716;9.648;2022-09-09T05:11:27;13.20;1.00
3684;DHT22;1858;48.716;9.648;2022-09-09T05:13:55;13.10;1.00
3684;DHT22;1858;48.716;9.648;2022-09-09T05:16:24;13.30;1.00
3684;DHT22;1858;48.716;9.648;2022-09-09T05:18:51;13.40;1.00
3684;DHT22;1858;48.716;9.648;2022-09-09T05:21:21;13.60;1.00
3684;DHT22;1858;48.716;9.648;2022-09-09T05:23:49;13.80;99.90
3684;DHT22;1858;48.716;9.648;2022-09-09T05:26:19;13.80;99.90
3684;DHT22;1858;48.716;9.648;2022-09-09T05:28:46;13.90;99.90
3684;DHT22;1858;48.716;9.648;2022-09-09T05:31:15;13.80;99.90
3684;DHT22;1858;48.716;9.648;2022-09-09T05:33:43;13.80;99.90
3684;DHT22;1858;48.716;9.648;2022-09-09T05:36:13;13.60;99.90
3684;DHT22;1858;48.716;9.648;2022-09-09T05:38:41;13.50;99.90
3684;DHT22;1858;48.716;9.648;2022-09-09T05:41:10;13.40;99.90
3684;DHT22;1858;48.716;9.648;2022-09-09T05:43:38;13.40;1.00
3684;DHT22;1858;48.716;9.648;2022-09-09T05:46:07;13.40;1.00
3684;DHT22;1858;48.716;9.648;2022-09-09T05:48:36;13.50;1.00
3684;DHT22;1858;48.716;9.648;2022-09-09T05:51:05;13.70;1.00
3684;DHT22;1858;48.716;9.648;2022-09-09T05:53:34;13.80;99.90
3684;DHT22;1858;48.716;9.648;2022-09-09T05:56:03;13.80;99.90
3684;DHT22;1858;48.716;9.648;2022-09-09T05:58:33;13.80;99.90
3684;DHT22;1858;48.716;9.648;2022-09-09T06:01:05;13.80;99.90
3684;DHT22;1858;48.716;9.648;2022-09-09T06:03:37;13.90;99.90
3684;DHT22;1858;48.716;9.648;2022-09-09T06:06:06;14.00;99.90
3684;DHT22;1858;48.716;9.648;2022-09-09T06:08:34;14.10;99.90
3684;DHT22;1858;48.716;9.648;2022-09-09T06:14:09;14.30;99.90
3684;DHT22;1858;48.716;9.648;2022-09-09T06:16:37;14.50;99.90
3684;DHT22;1858;48.716;9.648;2022-09-09T06:19:05;14.60;99.90
3684;DHT22;1858;48.716;9.648;2022-09-09T06:21:33;14.90;99.90
3684;DHT22;1858;48.716;9.648;2022-09-09T06:24:03;15.00;85.30
3684;DHT22;1858;48.716;9.648;2022-09-09T06:26:32;15.10;50.60
3684;DHT22;1858;48.716;9.648;2022-09-09T06:29:00;15.20;1.00
3684;DHT22;1858;48.716;9.648;2022-09-09T06:31:31;15.40;1.00
3684;DHT22;1858;48.716;9.648;2022-09-09T06:34:18;15.60;1.00
3684;DHT22;1858;48.716;9.648;2022-09-09T06:36:46;15.80;1.00
3684;DHT22;1858;48.716;9.648;2022-09-09T06:39:13;15.90;1.00
3684;DHT22;1858;48.716;9.648;2022-09-09T06:41:42;15.90;1.00
3684;DHT22;1858;48.716;9.648;2022-09-09T06:44:10;16.20;1.00
3684;DHT22;1858;48.716;9.648;2022-09-09T06:46:39;16.40;1.00
3684;DHT22;1858;48.716;9.648;2022-09-09T06:49:07;16.80;99.90
3684;DHT22;1858;48.716;9.648;2022-09-09T06:51:36;17.20;99.90
3684;DHT22;1858;48.716;9.648;2022-09-09T06:54:05;17.70;99.90
3684;DHT22;1858;48.716;9.648;2022-09-09T06:56:40;18.10;99.90
3684;DHT22;1858;48.716;9.648;2022-09-09T06:59:09;18.30;99.90
3684;DHT22;1858;48.716;9.648;2022-09-09T07:01:39;18.40;99.90
3684;DHT22;1858;48.716;9.648;2022-09-09T07:04:17;18.60;99.90
3684;DHT22;1858;48.716;9.648;2022-09-09T07:06:45;18.70;99.90
3684;DHT22;1858;48.716;9.648;2022-09-09T07:09:14;18.90;99.90
3684;DHT22;1858;48.716;9.648;2022-09-09T07:11:51;19.30;99.90
3684;DHT22;1858;48.716;9.648;2022-09-09T07:14:14;19.60;99.90
3684;DHT22;1858;48.716;9.648;2022-09-09T07:16:43;19.90;99.90
3684;DHT22;1858;48.716;9.648;2022-09-09T07:19:31;20.00;99.90
3684;DHT22;1858;48.716;9.648;2022-09-09T07:21:58;20.20;38.80
3684;DHT22;1858;48.716;9.648;2022-09-09T07:24:26;20.40;81.40
3684;DHT22;1858;48.716;9.648;2022-09-09T07:26:55;20.50;94.90
3684;DHT22;1858;48.716;9.648;2022-09-09T07:29:23;20.60;64.60
3684;DHT22;1858;48.716;9.648;2022-09-09T07:31:51;20.60;57.80
3684;DHT22;1858;48.716;9.648;2022-09-09T07:34:18;20.50;69.20
3684;DHT22;1858;48.716;9.648;2022-09-09T07:36:46;20.50;52.90
3684;DHT22;1858;48.716;9.648;2022-09-09T07:39:14;20.60;47.40
3684;DHT22;1858;48.716;9.648;2022-09-09T07:41:44;20.90;16.90
3684;DHT22;1858;48.716;9.648;2022-09-09T07:44:13;21.20;1.00
3684;DHT22;1858;48.716;9.648;2022-09-09T07:46:41;21.50;1.00
3684;DHT22;1858;48.716;9.648;2022-09-09T07:49:10;22.00;1.00
3684;DHT22;1858;48.716;9.648;2022-09-09T07:51:46;22.50;1.00
3684;DHT22;1858;48.716;9.648;2022-09-09T07:54:16;23.20;1.00
3684;DHT22;1858;48.716;9.648;2022-09-09T07:56:46;23.80;1.00
3684;DHT22;1858;48.716;9.648;2022-09-09T07:59:13;24.30;1.00
3684;DHT22;1858;48.716;9.648;2022-09-09T08:01:45;24.70;1.00
3684;DHT22;1858;48.716;9.648;2022-09-09T08:04:14;25.50;1.00
3684;DHT22;1858;48.716;9.648;2022-09-09T08:06:43;26.10;1.00
3684;DHT22;1858;48.716;9.648;2022-09-09T08:09:11;26.60;99.90
3684;DHT22;1858;48.716;9.648;2022-09-09T08:11:39;27.50;99.90
3684;DHT22;1858;48.716;9.648;2022-09-09T08:14:07;28.00;99.90
3684;DHT22;1858;48.716;9.648;2022-09-09T08:16:37;28.10;99.90
3684;DHT22;1858;48.716;9.648;2022-09-09T08:19:05;28.10;99.90
3684;DHT22;1858;48.716;9.648;2022-09-09T08:21:34;28.10;99.90
3684;DHT22;1858;48.716;9.648;2022-09-09T08:24:03;27.90;99.90
3684;DHT22;1858;48.716;9.648;2022-09-09T08:26:34;27.50;99.90
3684;DHT22;1858;48.716;9.648;2022-09-09T08:29:03;28.00;99.90
3684;DHT22;1858;48.716;9.648;2022-09-09T08:31:32;29.30;99.90
3684;DHT22;1858;48.716;9.648;2022-09-09T08:34:00;30.40;99.90
3684;DHT22;1858;48.716;9.648;2022-09-09T08:36:31;30.30;99.90
3684;DHT22;1858;48.716;9.648;2022-09-09T08:39:00;29.90;99.90
3684;DHT22;1858;48.716;9.648;2022-09-09T08:44:27;31.60;99.90
3684;DHT22;1858;48.716;9.648;2022-09-09T08:52:37;34.70;99.90
3684;DHT22;1858;48.716;9.648;2022-09-09T08:55:30;34.40;99.90
3684;DHT22;1858;48.716;9.648;2022-09-09T08:57:54;33.00;99.90
3684;DHT22;1858;48.716;9.648;2022-09-09T09:00:22;32.00;99.90
3684;DHT22;1858;48.716;9.648;2022-09-09T09:03:00;31.20;99.90
3684;DHT22;1858;48.716;9.648;2022-09-09T09:10:41;30.20;99.90
3684;DHT22;1858;48.716;9.648;2022-09-09T09:13:22;29.80;99.90
3684;DHT22;1858;48.716;9.648;2022-09-09T09:16:00;29.40;99.90
3684;DHT22;1858;48.716;9.648;2022-09-09T09:18:36;29.10;99.90
3684;DHT22;1858;48.716;9.648;2022-09-09T09:23:45;28.10;99.90
3684;DHT22;1858;48.716;9.648;2022-09-09T09:26:09;27.60;99.90
3684;DHT22;1858;48.716;9.648;2022-09-09T09:28:38;27.10;99.90
3684;DHT22;1858;48.716;9.648;2022-09-09T09:31:08;26.80;99.90
3684;DHT22;1858;48.716;9.648;2022-09-09T09:36:07;25.90;99.90
3684;DHT22;1858;48.716;9.648;2022-09-09T09:38:35;25.70;99.90
3684;DHT22;1858;48.716;9.648;2022-09-09T09:43:53;25.80;99.90
3684;DHT22;1858;48.716;9.648;2022-09-09T09:46:23;26.20;99.90
3684;DHT22;1858;48.716;9.648;2022-09-09T09:48:59;26.40;99.90
3684;DHT22;1858;48.716;9.648;2022-09-09T09:51:27;26.90;99.90
3684;DHT22;1858;48.716;9.648;2022-09-09T09:54:42;27.40;99.90
3684;DHT22;1858;48.716;9.648;2022-09-09T09:56:29;27.60;99.90
3684;DHT22;1858;48.716;9.648;2022-09-09T09:58:57;27.70;99.90
3684;DHT22;1858;48.716;9.648;2022-09-09T10:01:28;28.30;99.90
3684;DHT22;1858;48.716;9.648;2022-09-09T10:04:17;29.80;99.90
3684;DHT22;1858;48.716;9.648;2022-09-09T10:06:47;30.60;99.90
3684;DHT22;1858;48.716;9.648;2022-09-09T10:14:51;30.50;99.90
3684;DHT22;1858;48.716;9.648;2022-09-09T10:17:40;30.10;99.90
3684;DHT22;1858;48.716;9.648;2022-09-09T10:22:50;29.10;99.90
3684;DHT22;1858;48.716;9.648;2022-09-09T10:30:50;33.90;99.90
3684;DHT22;1858;48.716;9.648;2022-09-09T10:36:26;36.90;99.90
3684;DHT22;1858;48.716;9.648;2022-09-09T10:39:15;38.10;99.90
3684;DHT22;1858;48.716;9.648;2022-09-09T10:44:24;35.00;99.90
3684;DHT22;1858;48.716;9.648;2022-09-09T10:49:44;32.90;99.90
3684;DHT22;1858;48.716;9.648;2022-09-09T10:52:09;34.30;99.90
3684;DHT22;1858;48.716;9.648;2022-09-09T10:57:48;36.70;99.90
3684;DHT22;1858;48.716;9.648;2022-09-09T11:00:35;36.90;99.90
3684;DHT22;1858;48.716;9.648;2022-09-09T11:03:03;37.00;99.90
3684;DHT22;1858;48.716;9.648;2022-09-09T11:08:20;37.10;99.90
3684;DHT22;1858;48.716;9.648;2022-09-09T11:10:53;36.00;99.90
3684;DHT22;1858;48.716;9.648;2022-09-09T11:13:26;36.00;99.90
3684;DHT22;1858;48.716;9.648;2022-09-09T11:15:59;36.50;99.90
3684;DHT22;1858;48.716;9.648;2022-09-09T11:18:27;34.70;99.90
3684;DHT22;1858;48.716;9.648;2022-09-09T11:20:58;32.80;99.90
3684;DHT22;1858;48.716;9.648;2022-09-09T11:23:33;31.80;99.90
3684;DHT22;1858;48.716;9.648;2022-09-09T11:25:55;31.00;99.90
3684;DHT22;1858;48.716;9.648;2022-09-09T11:28:40;30.60;99.90
3684;DHT22;1858;48.716;9.648;2022-09-09T11:36:48;31.60;99.90
3684;DHT22;1858;48.716;9.648;2022-09-09T11:44:35;30.80;99.90
3684;DHT22;1858;48.716;9.648;2022-09-09T11:47:03;30.20;99.90
3684;DHT22;1858;48.716;9.648;2022-09-09T11:52:22;30.30;99.90
3684;DHT22;1858;48.716;9.648;2022-09-09T11:55:10;30.10;99.90
3684;DHT22;1858;48.716;9.648;2022-09-09T11:58:17;29.40;99.90
3684;DHT22;1858;48.716;9.648;2022-09-09T12:02:59;28.40;99.90
3684;DHT22;1858;48.716;9.648;2022-09-09T12:05:40;28.00;99.90
3684;DHT22;1858;48.716;9.648;2022-09-09T12:08:09;27.70;99.90
3684;DHT22;1858;48.716;9.648;2022-09-09T12:10:40;27.20;99.90
3684;DHT22;1858;48.716;9.648;2022-09-09T12:13:15;26.50;99.90
3684;DHT22;1858;48.716;9.648;2022-09-09T12:15:46;26.00;99.90
3684;DHT22;1858;48.716;9.648;2022-09-09T12:18:07;25.60;99.90
3684;DHT22;1858;48.716;9.648;2022-09-09T12:20:35;25.20;99.90
3684;DHT22;1858;48.716;9.648;2022-09-09T12:23:12;24.80;99.90
3684;DHT22;1858;48.716;9.648;2022-09-09T12:28:27;24.20;99.90
3684;DHT22;1858;48.716;9.648;2022-09-09T12:33:22;24.10;99.90
3684;DHT22;1858;48.716;9.648;2022-09-09T12:35:52;24.10;99.90
3684;DHT22;1858;48.716;9.648;2022-09-09T12:38:32;24.10;99.90
3684;DHT22;1858;48.716;9.648;2022-09-09T12:40:56;24.10;99.90
3684;DHT22;1858;48.716;9.648;2022-09-09T12:43:25;24.30;99.90
3684;DHT22;1858;48.716;9.648;2022-09-09T12:45:54;24.50;99.90
3684;DHT22;1858;48.716;9.648;2022-09-09T12:48:36;24.90;99.90
3684;DHT22;1858;48.716;9.648;2022-09-09T12:51:16;25.20;99.90
3684;DHT22;1858;48.716;9.648;2022-09-09T12:53:35;25.40;99.90
3684;DHT22;1858;48.716;9.648;2022-09-09T12:56:07;25.40;99.90
3684;DHT22;1858;48.716;9.648;2022-09-09T12:58:55;25.30;99.90
3684;DHT22;1858;48.716;9.648;2022-09-09T13:04:22;25.20;99.90
3684;DHT22;1858;48.716;9.648;2022-09-09T13:06:50;25.10;99.90
3684;DHT22;1858;48.716;9.648;2022-09-09T13:09:19;25.00;99.90
3684;DHT22;1858;48.716;9.648;2022-09-09T13:11:54;24.90;99.90
3684;DHT22;1858;48.716;9.648;2022-09-09T13:14:19;24.80;99.90
3684;DHT22;1858;48.716;9.648;2022-09-09T13:17:15;24.60;99.90
3684;DHT22;1858;48.716;9.648;2022-09-09T13:19:55;24.60;99.90
3684;DHT22;1858;48.716;9.648;2022-09-09T13:22:34;24.70;99.90
3684;DHT22;1858;48.716;9.648;2022-09-09T13:25:22;24.70;99.90
3684;DHT22;1858;48.716;9.648;2022-09-09T13:33:43;24.60;99.90
3684;DHT22;1858;48.716;9.648;2022-09-09T13:36:11;24.50;99.90
3684;DHT22;1858;48.716;9.648;2022-09-09T13:39:03;24.60;99.90
3684;DHT22;1858;48.716;9.648;2022-09-09T13:41:10;24.50;99.90
3684;DHT22;1858;48.716;9.648;2022-09-09T13:43:47;24.30;99.90
3684;DHT22;1858;48.716;9.648;2022-09-09T13:51:42;24.20;99.90
3684;DHT22;1858;48.716;9.648;2022-09-09T13:54:12;24.20;99.90
3684;DHT22;1858;48.716;9.648;2022-09-09T13:56:41;24.10;99.90
3684;DHT22;1858;48.716;9.648;2022-09-09T13:59:12;24.20;99.90
3684;DHT22;1858;48.716;9.648;2022-09-09T14:01:41;24.30;99.90
3684;DHT22;1858;48.716;9.648;2022-09-09T14:04:09;24.30;99.90
3684;DHT22;1858;48.716;9.648;2022-09-09T14:06:37;24.30;99.90
3684;DHT22;1858;48.716;9.648;2022-09-09T14:09:11;24.60;99.90
3684;DHT22;1858;48.716;9.648;2022-09-09T14:11:39;24.70;99.90
3684;DHT22;1858;48.716;9.648;2022-09-09T14:14:07;24.70;99.90
3684;DHT22;1858;48.716;9.648;2022-09-09T14:16:34;24.60;99.90
3684;DHT22;1858;48.716;9.648;2022-09-09T14:19:03;24.60;99.90
3684;DHT22;1858;48.716;9.648;2022-09-09T14:21:30;24.40;99.90
3684;DHT22;1858;48.716;9.648;2022-09-09T14:23:59;24.30;99.90
3684;DHT22;1858;48.716;9.648;2022-09-09T14:26:26;24.30;99.90
3684;DHT22;1858;48.716;9.648;2022-09-09T14:28:56;24.40;99.90
3684;DHT22;1858;48.716;9.648;2022-09-09T14:31:28;24.30;99.90
3684;DHT22;1858;48.716;9.648;2022-09-09T14:33:56;24.20;99.90
3684;DHT22;1858;48.716;9.648;2022-09-09T14:36:23;24.20;99.90
3684;DHT22;1858;48.716;9.648;2022-09-09T14:41:38;24.10;99.90
3684;DHT22;1858;48.716;9.648;2022-09-09T14:44:06;24.10;99.90
3684;DHT22;1858;48.716;9.648;2022-09-09T14:46:34;24.20;99.90
3684;DHT22;1858;48.716;9.648;2022-09-09T14:49:02;24.30;99.90
3684;DHT22;1858;48.716;9.648;2022-09-09T14:51:31;24.30;99.90
3684;DHT22;1858;48.716;9.648;2022-09-09T14:53:59;24.30;99.90
3684;DHT22;1858;48.716;9.648;2022-09-09T14:59:15;24.10;99.90
3684;DHT22;1858;48.716;9.648;2022-09-09T15:01:43;24.10;99.90
3684;DHT22;1858;48.716;9.648;2022-09-09T15:04:11;24.10;99.90
3684;DHT22;1858;48.716;9.648;2022-09-09T15:06:40;24.10;99.90
3684;DHT22;1858;48.716;9.648;2022-09-09T15:09:10;24.20;99.90
3684;DHT22;1858;48.716;9.648;2022-09-09T15:11:38;24.20;99.90
3684;DHT22;1858;48.716;9.648;2022-09-09T15:14:06;24.10;99.90
3684;DHT22;1858;48.716;9.648;2022-09-09T15:16:34;24.00;99.90
3684;DHT22;1858;48.716;9.648;2022-09-09T15:19:02;24.00;99.90
3684;DHT22;1858;48.716;9.648;2022-09-09T15:21:32;23.80;99.90
3684;DHT22;1858;48.716;9.648;2022-09-09T15:23:59;23.80;99.90
3684;DHT22;1858;48.716;9.648;2022-09-09T15:26:27;23.70;99.90
3684;DHT22;1858;48.716;9.648;2022-09-09T15:28:56;23.70;99.90
3684;DHT22;1858;48.716;9.648;2022-09-09T15:31:27;23.80;99.90
3684;DHT22;1858;48.716;9.648;2022-09-09T15:33:58;23.90;99.90
3684;DHT22;1858;48.716;9.648;2022-09-09T15:36:30;23.90;99.90
3684;DHT22;1858;48.716;9.648;2022-09-09T15:38:59;23.90;99.90
3684;DHT22;1858;48.716;9.648;2022-09-09T15:41:27;23.80;99.90
3684;DHT22;1858;48.716;9.648;2022-09-09T15:43:55;23.70;99.90
3684;DHT22;1858;48.716;9.648;2022-09-09T15:46:24;23.50;99.90
3684;DHT22;1858;48.716;9.648;2022-09-09T15:48:57;23.40;99.90
3684;DHT22;1858;48.716;9.648;2022-09-09T15:51:25;23.30;99.90
3684;DHT22;1858;48.716;9.648;2022-09-09T15:53:55;23.10;99.90
3684;DHT22;1858;48.716;9.648;2022-09-09T15:56:23;23.00;99.90
3684;DHT22;1858;48.716;9.648;2022-09-09T15:58:51;22.90;99.90
3684;DHT22;1858;48.716;9.648;2022-09-09T16:01:18;22.80;99.90
3684;DHT22;1858;48.716;9.648;2022-09-09T16:03:46;22.80;99.90
3684;DHT22;1858;48.716;9.648;2022-09-09T16:06:17;22.70;99.90
3684;DHT22;1858;48.716;9.648;2022-09-09T16:08:45;22.70;99.90
3684;DHT22;1858;48.716;9.648;2022-09-09T16:11:29;22.70;99.90
3684;DHT22;1858;48.716;9.648;2022-09-09T16:13:49;22.70;99.90
3684;DHT22;1858;48.716;9.648;2022-09-09T16:16:18;22.80;99.90
3684;DHT22;1858;48.716;9.648;2022-09-09T16:18:46;22.90;99.90
3684;DHT22;1858;48.716;9.648;2022-09-09T16:21:16;22.80;99.90
3684;DHT22;1858;48.716;9.648;2022-09-09T16:23:44;22.70;99.90
3684;DHT22;1858;48.716;9.648;2022-09-09T16:26:12;22.50;99.90
3684;DHT22;1858;48.716;9.648;2022-09-09T16:28:40;22.40;99.90
3684;DHT22;1858;48.716;9.648;2022-09-09T16:31:09;22.20;99.90
3684;DHT22;1858;48.716;9.648;2022-09-09T16:33:37;22.10;99.90
3684;DHT22;1858;48.716;9.648;2022-09-09T16:36:06;22.10;99.90
3684;DHT22;1858;48.716;9.648;2022-09-09T16:38:34;21.90;99.90
3684;DHT22;1858;48.716;9.648;2022-09-09T16:41:02;21.90;99.90
3684;DHT22;1858;48.716;9.648;2022-09-09T16:43:32;21.90;99.90
3684;DHT22;1858;48.716;9.648;2022-09-09T16:46:00;21.80;99.90
3684;DHT22;1858;48.716;9.648;2022-09-09T16:48:31;21.70;99.90
3684;DHT22;1858;48.716;9.648;2022-09-09T16:51:01;21.80;99.90
3684;DHT22;1858;48.716;9.648;2022-09-09T16:53:31;21.80;99.90
3684;DHT22;1858;48.716;9.648;2022-09-09T16:56:09;21.80;99.90
3684;DHT22;1858;48.716;9.648;2022-09-09T16:58:28;21.80;99.90
3684;DHT22;1858;48.716;9.648;2022-09-09T17:01:00;21.80;99.90
3684;DHT22;1858;48.716;9.648;2022-09-09T17:03:28;21.80;99.90
3684;DHT22;1858;48.716;9.648;2022-09-09T17:05:56;21.70;99.90
3684;DHT22;1858;48.716;9.648;2022-09-09T17:08:24;21.70;99.90
3684;DHT22;1858;48.716;9.648;2022-09-09T17:10:52;21.70;99.90
3684;DHT22;1858;48.716;9.648;2022-09-09T17:13:19;21.60;99.90
3684;DHT22;1858;48.716;9.648;2022-09-09T17:15:47;21.50;99.90
3684;DHT22;1858;48.716;9.648;2022-09-09T17:18:15;21.50;99.90
3684;DHT22;1858;48.716;9.648;2022-09-09T17:20:43;21.40;99.90
3684;DHT22;1858;48.716;9.648;2022-09-09T17:23:11;21.30;99.90
3684;DHT22;1858;48.716;9.648;2022-09-09T17:25:41;21.20;99.90
3684;DHT22;1858;48.716;9.648;2022-09-09T17:28:09;21.10;99.90
3684;DHT22;1858;48.716;9.648;2022-09-09T17:30:37;21.00;99.90
3684;DHT22;1858;48.716;9.648;2022-09-09T17:33:04;20.90;99.90
3684;DHT22;1858;48.716;9.648;2022-09-09T17:35:33;20.90;99.90
3684;DHT22;1858;48.716;9.648;2022-09-09T17:38:01;20.80;99.90
3684;DHT22;1858;48.716;9.648;2022-09-09T17:43:15;20.50;99.90
3684;DHT22;1858;48.716;9.648;2022-09-09T17:45:43;20.40;99.90
3684;DHT22;1858;48.716;9.648;2022-09-09T17:48:12;20.30;99.90
3684;DHT22;1858;48.716;9.648;2022-09-09T17:50:40;20.20;99.90
3684;DHT22;1858;48.716;9.648;2022-09-09T17:53:08;20.10;99.90
3684;DHT22;1858;48.716;9.648;2022-09-09T17:55:36;20.00;99.90
3684;DHT22;1858;48.716;9.648;2022-09-09T17:58:03;19.90;99.90
3684;DHT22;1858;48.716;9.648;2022-09-09T18:00:31;19.70;99.90
3684;DHT22;1858;48.716;9.648;2022-09-09T18:02:59;19.50;99.90
3684;DHT22;1858;48.716;9.648;2022-09-09T18:05:27;19.30;99.90
3684;DHT22;1858;48.716;9.648;2022-09-09T18:07:54;19.20;99.90
3684;DHT22;1858;48.716;9.648;2022-09-09T18:10:22;19.10;99.90
3684;DHT22;1858;48.716;9.648;2022-09-09T18:15:36;19.20;99.90
3684;DHT22;1858;48.716;9.648;2022-09-09T18:18:04;19.30;99.90
3684;DHT22;1858;48.716;9.648;2022-09-09T18:20:32;19.20;99.90
3684;DHT22;1858;48.716;9.648;2022-09-09T18:23:00;19.20;99.90
3684;DHT22;1858;48.716;9.648;2022-09-09T18:25:28;19.10;99.90
3684;DHT22;1858;48.716;9.648;2022-09-09T18:27:55;19.00;99.90
3684;DHT22;1858;48.716;9.648;2022-09-09T18:30:24;18.90;99.90
3684;DHT22;1858;48.716;9.648;2022-09-09T18:32:51;18.70;99.90
3684;DHT22;1858;48.716;9.648;2022-09-09T18:35:19;18.50;99.90
3684;DHT22;1858;48.716;9.648;2022-09-09T18:37:46;18.40;99.90
3684;DHT22;1858;48.716;9.648;2022-09-09T18:40:14;18.20;99.90
3684;DHT22;1858;48.716;9.648;2022-09-09T18:42:42;18.10;99.90
3684;DHT22;1858;48.716;9.648;2022-09-09T18:45:09;18.00;99.90
3684;DHT22;1858;48.716;9.648;2022-09-09T18:47:37;17.90;99.90
3684;DHT22;1858;48.716;9.648;2022-09-09T18:50:05;17.80;99.90
3684;DHT22;1858;48.716;9.648;2022-09-09T18:52:33;17.80;99.90
3684;DHT22;1858;48.716;9.648;2022-09-09T18:57:47;17.50;99.90
3684;DHT22;1858;48.716;9.648;2022-09-09T19:00:16;17.40;1.40
3684;DHT22;1858;48.716;9.648;2022-09-09T19:02:43;17.30;1.00
3684;DHT22;1858;48.716;9.648;2022-09-09T19:10:46;17.30;1.00
3684;DHT22;1858;48.716;9.648;2022-09-09T19:13:14;17.20;1.00